Time;durP1;ratioP1;P1;durP2;ratioP2;P2;SDS_P1;SDS_P2;PMS_P1;PMS_P2;Temp;Humidity;BMP_temperature;BMP_pressure;BME280_temperature;BME280_humidity;BME280_pressure;Samples;Min_cycle;Max_cycle;Signal;HPM_P1;HPM_P2
2023/05/29 00:01:37;;;;;;;0.00;0.00;;;;;;;;;;5088027;28;20116;-86
2023/05/29 00:04:03;;;;;;;0.20;0.13;;;;;;;;;;5091698;28;20036;-87
2023/05/29 00:06:31;;;;;;;0.22;0.22;;;;;;;;;;5103649;28;20031;-89
2023/05/29 00:08:59;;;;;;;0.00;0.00;;;;;;;;;;5107049;28;20031;-86
2023/05/29 00:11:27;;;;;;;0.00;0.00;;;;;;;;;;5088428;28;20070;-88
2023/05/29 00:13:56;;;;;;;0.00;0.00;;;;;;;;;;5111642;28;20035;-87
2023/05/29 00:16:25;;;;;;;0.45;0.45;;;;;;;;;;5080452;28;20131;-87
2023/05/29 00:18:51;;;;;;;0.10;0.10;;;;;;;;;;5083065;28;20177;-87
2023/05/29 00:21:17;;;;;;;0.20;0.20;;;;;;;;;;5081622;28;20519;-88
2023/05/29 00:23:46;;;;;;;0.38;0.10;;;;;;;;;;5105734;28;20120;-89
2023/05/29 00:26:12;;;;;;;0.00;0.00;;;;;;;;;;5081216;28;20032;-87
2023/05/29 00:28:41;;;;;;;0.03;0.03;;;;;;;;;;5074658;28;20090;-90
2023/05/29 00:31:11;;;;;;;0.00;0.00;;;;;;;;;;5071890;28;20040;-88
2023/05/29 00:33:42;;;;;;;0.80;0.47;;;;;;;;;;5098163;28;20030;-87
2023/05/29 00:36:19;;;;;;;0.00;0.00;;;;;;;;;;5081340;28;20040;-89
2023/05/29 00:38:51;;;;;;;0.00;0.00;;;;;;;;;;5090708;28;20119;-87
2023/05/29 00:41:20;;;;;;;0.10;0.10;;;;;;;;;;5086096;28;20050;-88
2023/05/29 00:43:51;;;;;;;0.00;0.00;;;;;;;;;;5084296;28;20036;-87
2023/05/29 00:46:20;;;;;;;0.00;0.00;;;;;;;;;;5080684;28;20073;-88
2023/05/29 00:48:49;;;;;;;0.00;0.00;;;;;;;;;;5082794;28;20039;-89
2023/05/29 00:51:20;;;;;;;0.00;0.00;;;;;;;;;;5084686;28;20032;-88
2023/05/29 00:53:48;;;;;;;0.00;0.00;;;;;;;;;;5076300;28;20040;-92
2023/05/29 00:56:35;;;;;;;;;;;;;;;;;;;;;
2023/05/29 00:59:03;;;;;;;0.00;0.00;;;;;;;;;;5108050;28;20506;-90
2023/05/29 01:01:38;;;;;;;0.22;0.20;;;;;;;;;;5099333;28;20051;-87
2023/05/29 01:04:06;;;;;;;0.00;0.00;;;;;;;;;;5076895;28;20032;-89
2023/05/29 01:06:35;;;;;;;0.15;0.15;;;;;;;;;;5089670;28;20039;-90
2023/05/29 01:09:04;;;;;;;0.22;0.13;;;;;;;;;;5075506;28;20450;-89
2023/05/29 01:11:44;;;;;;;0.00;0.00;;;;;;;;;;5082583;28;20055;-89
2023/05/29 01:14:29;;;;;;;0.00;0.00;;;;;;;;;;5093920;27;20087;-90
2023/05/29 01:17:31;;;;;;;0.00;0.00;;;;;;;;;;5096743;28;20035;-91
2023/05/29 01:20:15;;;;;;;0.00;0.00;;;;;;;;;;5115789;28;20040;-91
2023/05/29 01:23:03;;;;;;;0.10;0.10;;;;;;;;;;5106201;28;20122;-89
2023/05/29 01:26:13;;;;;;;0.00;0.00;;;;;;;;;;5095109;28;20037;-90
2023/05/29 01:28:52;;;;;;;0.00;0.00;;;;;;;;;;5118125;27;20039;-91
2023/05/29 01:31:26;;;;;;;0.00;0.00;;;;;;;;;;5095220;28;20449;-92
2023/05/29 01:37:21;;;;;;;0.00;0.00;;;;;;;;;;5113228;28;20060;-93
2023/05/29 01:40:37;;;;;;;0.00;0.00;;;;;;;;;;5096432;28;20042;-92
2023/05/29 01:43:18;;;;;;;0.00;0.00;;;;;;;;;;5084906;28;20031;-91
2023/05/29 01:45:52;;;;;;;0.10;0.10;;;;;;;;;;5114475;28;20040;-89
2023/05/29 01:48:29;;;;;;;0.10;0.10;;;;;;;;;;5116924;28;20024;-90
2023/05/29 01:51:21;;;;;;;0.00;0.00;;;;;;;;;;5098924;28;20118;-91
2023/05/29 01:53:47;;;;;;;0.00;0.00;;;;;;;;;;5097156;28;20027;-91
2023/05/29 01:56:27;;;;;;;0.08;0.08;;;;;;;;;;5094095;28;20044;-91
2023/05/29 01:59:30;;;;;;;0.05;0.05;;;;;;;;;;5100153;28;20063;-90
2023/05/29 02:02:19;;;;;;;0.90;0.63;;;;;;;;;;5116469;28;20030;-89
2023/05/29 02:04:51;;;;;;;0.20;0.20;;;;;;;;;;5091417;28;20114;-88
2023/05/29 02:07:50;;;;;;;0.00;0.00;;;;;;;;;;5111719;28;20035;-88
2023/05/29 02:13:54;;;;;;;0.00;0.00;;;;;;;;;;5086904;28;20479;-87
2023/05/29 02:16:46;;;;;;;0.00;0.00;;;;;;;;;;5068158;28;20157;-88
2023/05/29 02:19:16;;;;;;;0.15;0.15;;;;;;;;;;5087325;28;20036;-88
2023/05/29 02:21:48;;;;;;;0.00;0.00;;;;;;;;;;5093916;28;20395;-90
2023/05/29 02:24:23;;;;;;;0.00;0.00;;;;;;;;;;5084236;28;20071;-91
2023/05/29 02:26:54;;;;;;;0.10;0.10;;;;;;;;;;5090558;28;20040;-90
2023/05/29 02:29:45;;;;;;;0.57;0.30;;;;;;;;;;5091913;28;20155;-90
2023/05/29 02:32:22;;;;;;;0.00;0.00;;;;;;;;;;5094319;28;20032;-89
2023/05/29 02:35:15;;;;;;;0.00;0.00;;;;;;;;;;5093570;28;20035;-88
2023/05/29 02:37:52;;;;;;;0.10;0.10;;;;;;;;;;5080715;28;20119;-90
2023/05/29 02:40:34;;;;;;;0.00;0.00;;;;;;;;;;5094614;28;20032;-89
2023/05/29 02:43:02;;;;;;;0.20;0.20;;;;;;;;;;5091578;28;20054;-89
2023/05/29 02:45:31;;;;;;;0.00;0.00;;;;;;;;;;5089441;28;20032;-90
2023/05/29 02:48:19;;;;;;;0.00;0.00;;;;;;;;;;5085714;28;20028;-88
2023/05/29 02:50:47;;;;;;;0.00;0.00;;;;;;;;;;5093498;28;20036;-89
2023/05/29 02:53:29;;;;;;;0.20;0.20;;;;;;;;;;5100219;28;20372;-90
2023/05/29 02:56:48;;;;;;;;;;;;;;;;;;;;;
2023/05/29 02:59:50;;;;;;;;;;;;;;;;;;;;;
2023/05/29 03:02:20;;;;;;;0.00;0.00;;;;;;;;;;5103966;28;20107;-89
2023/05/29 03:08:35;;;;;;;0.10;0.10;;;;;;;;;;5049781;28;20052;-88
2023/05/29 03:11:50;;;;;;;;;;;;;;;;;;;;;
2023/05/29 03:18:16;;;;;;;0.00;0.00;;;;;;;;;;5019371;28;20161;-90
2023/05/29 03:21:32;;;;;;;0.00;0.00;;;;;;;;;;5073464;28;20071;-91
2023/05/29 03:24:07;;;;;;;0.10;0.10;;;;;;;;;;5055320;28;20032;-92
2023/05/29 03:27:29;;;;;;;0.00;0.00;;;;;;;;;;5069041;28;20124;-89
2023/05/29 03:29:59;;;;;;;0.00;0.00;;;;;;;;;;4983502;28;20516;-89
2023/05/29 03:32:25;;;;;;;0.00;0.00;;;;;;;;;;5027101;28;20493;-89
2023/05/29 03:34:53;;;;;;;0.00;0.00;;;;;;;;;;5016730;28;20100;-89
2023/05/29 03:37:24;;;;;;;0.25;0.25;;;;;;;;;;5031025;28;20034;-90
2023/05/29 03:40:26;;;;;;;;;;;;;;;;;;;;;
2023/05/29 03:43:12;;;;;;;0.00;0.00;;;;;;;;;;5027628;28;20033;-90
2023/05/29 03:53:31;;;;;;;0.03;0.03;;;;;;;;;;4935603;28;20082;-90
2023/05/29 03:56:36;;;;;;;0.00;0.00;;;;;;;;;;5030292;28;20052;-93
2023/05/29 03:59:04;;;;;;;0.00;0.00;;;;;;;;;;5034689;28;20505;-89
2023/05/29 04:02:01;;;;;;;;;;;;;;;;;;;;;
2023/05/29 04:05:08;;;;;;;0.00;0.00;;;;;;;;;;5096489;28;20032;-89
2023/05/29 04:08:10;;;;;;;0.20;0.20;;;;;;;;;;5092583;28;20067;-89
2023/05/29 04:10:53;;;;;;;;;;;;;;;;;;;;;
2023/05/29 04:13:49;;;;;;;0.00;0.00;;;;;;;;;;5093114;28;20117;-87
2023/05/29 04:16:20;;;;;;;0.00;0.00;;;;;;;;;;5088638;28;20078;-89
2023/05/29 04:18:45;;;;;;;0.08;0.08;;;;;;;;;;5092301;28;20082;-88
2023/05/29 04:21:25;;;;;;;0.00;0.00;;;;;;;;;;5085453;28;20028;-88
2023/05/29 04:23:53;;;;;;;0.63;0.63;;;;;;;;;;5091216;28;20034;-88
2023/05/29 04:26:34;;;;;;;0.00;0.00;;;;;;;;;;5069294;28;20036;-88
2023/05/29 04:29:00;;;;;;;0.00;0.00;;;;;;;;;;5066444;28;20086;-89
2023/05/29 04:32:07;;;;;;;0.20;0.20;;;;;;;;;;5089077;28;20036;-90
2023/05/29 04:34:24;;;;;;;0.00;0.00;;;;;;;;;;5082935;28;20488;-86
2023/05/29 04:36:52;;;;;;;0.00;0.00;;;;;;;;;;5087456;28;20119;-86
2023/05/29 04:39:28;;;;;;;0.00;0.00;;;;;;;;;;5070258;28;20451;-87
2023/05/29 04:41:58;;;;;;;0.00;0.00;;;;;;;;;;5086811;28;20060;-88
2023/05/29 04:44:29;;;;;;;0.00;0.00;;;;;;;;;;5069182;28;20072;-88
2023/05/29 04:46:56;;;;;;;0.00;0.00;;;;;;;;;;5066526;28;20024;-87
2023/05/29 04:49:22;;;;;;;0.20;0.20;;;;;;;;;;5091051;28;20032;-88
2023/05/29 04:51:48;;;;;;;0.15;0.10;;;;;;;;;;5082278;28;20039;-85
2023/05/29 04:54:13;;;;;;;0.03;0.03;;;;;;;;;;5092107;28;20074;-86
2023/05/29 04:56:42;;;;;;;0.10;0.10;;;;;;;;;;5066691;28;20424;-87
2023/05/29 04:59:07;;;;;;;0.10;0.10;;;;;;;;;;5068846;28;20032;-85
2023/05/29 05:01:33;;;;;;;0.00;0.00;;;;;;;;;;5060344;28;20047;-86
2023/05/29 05:03:59;;;;;;;0.00;0.00;;;;;;;;;;5062776;28;20033;-87
2023/05/29 05:06:28;;;;;;;0.00;0.00;;;;;;;;;;5063541;28;20036;-85
2023/05/29 05:08:54;;;;;;;0.17;0.17;;;;;;;;;;5089074;28;20028;-85
2023/05/29 05:11:21;;;;;;;0.25;0.25;;;;;;;;;;5083962;28;20167;-84
2023/05/29 05:13:47;;;;;;;0.10;0.10;;;;;;;;;;5115900;27;20039;-85
2023/05/29 05:16:12;;;;;;;0.17;0.17;;;;;;;;;;5112308;28;20039;-84
2023/05/29 05:18:38;;;;;;;0.00;0.00;;;;;;;;;;5111290;28;20433;-85
2023/05/29 05:21:04;;;;;;;0.10;0.10;;;;;;;;;;5110775;27;20038;-83
2023/05/29 05:23:30;;;;;;;0.00;0.00;;;;;;;;;;5115467;27;20399;-87
2023/05/29 05:25:56;;;;;;;0.00;0.00;;;;;;;;;;5109104;28;20035;-86
2023/05/29 05:28:22;;;;;;;0.00;0.00;;;;;;;;;;5113457;28;20034;-87
2023/05/29 05:30:47;;;;;;;0.40;0.40;;;;;;;;;;5115213;27;20031;-85
2023/05/29 05:33:13;;;;;;;0.30;0.25;;;;;;;;;;5112464;28;20039;-85
2023/05/29 05:35:38;;;;;;;0.00;0.00;;;;;;;;;;5114659;27;20031;-86
2023/05/29 05:38:04;;;;;;;0.00;0.00;;;;;;;;;;5107210;28;20032;-86
2023/05/29 05:40:29;;;;;;;0.15;0.15;;;;;;;;;;5108257;28;20390;-86
2023/05/29 05:42:55;;;;;;;0.20;0.20;;;;;;;;;;5111977;28;20104;-85
2023/05/29 05:45:21;;;;;;;0.55;0.13;;;;;;;;;;5112765;28;20031;-86
2023/05/29 05:47:46;;;;;;;0.00;0.00;;;;;;;;;;5111907;28;20518;-86
2023/05/29 05:50:12;;;;;;;0.00;0.00;;;;;;;;;;5111864;28;20130;-86
2023/05/29 05:52:37;;;;;;;0.00;0.00;;;;;;;;;;5112529;28;20020;-86
2023/05/29 05:55:03;;;;;;;0.00;0.00;;;;;;;;;;5092885;28;20043;-85
2023/05/29 05:57:29;;;;;;;1.38;0.70;;;;;;;;;;5094058;28;20035;-83
2023/05/29 05:59:54;;;;;;;0.15;0.15;;;;;;;;;;5092989;28;20036;-84
2023/05/29 06:02:20;;;;;;;0.00;0.00;;;;;;;;;;5110781;28;20032;-84
2023/05/29 06:04:45;;;;;;;0.00;0.00;;;;;;;;;;5110765;28;20131;-85
2023/05/29 06:07:11;;;;;;;0.20;0.20;;;;;;;;;;5112062;28;20092;-88
2023/05/29 06:09:37;;;;;;;0.03;0.03;;;;;;;;;;5093286;28;20034;-85
2023/05/29 06:12:03;;;;;;;0.57;0.57;;;;;;;;;;5109480;28;20042;-85
2023/05/29 06:14:28;;;;;;;0.28;0.15;;;;;;;;;;5105259;28;20115;-86
2023/05/29 06:16:54;;;;;;;0.00;0.00;;;;;;;;;;5111428;28;20118;-86
2023/05/29 06:19:20;;;;;;;0.20;0.20;;;;;;;;;;5109235;28;20036;-90
2023/05/29 06:21:46;;;;;;;0.00;0.00;;;;;;;;;;5095269;28;20032;-87
2023/05/29 06:24:12;;;;;;;0.13;0.13;;;;;;;;;;5114255;28;20051;-85
2023/05/29 06:26:37;;;;;;;0.00;0.00;;;;;;;;;;5115636;28;20032;-85
2023/05/29 06:29:03;;;;;;;0.00;0.00;;;;;;;;;;5095259;28;20032;-84
2023/05/29 06:31:28;;;;;;;0.10;0.10;;;;;;;;;;5114155;28;20046;-88
2023/05/29 06:33:54;;;;;;;0.45;0.45;;;;;;;;;;5115571;28;20522;-85
2023/05/29 06:36:20;;;;;;;0.00;0.00;;;;;;;;;;5115974;28;20043;-85
2023/05/29 06:38:49;;;;;;;0.00;0.00;;;;;;;;;;5116659;28;20035;-86
2023/05/29 06:41:15;;;;;;;;;;;;;;;;;;5114044;28;20036;-85
2023/05/29 06:43:40;;;;;;;0.43;0.40;;;;;;;;;;5115518;27;19922;-85
2023/05/29 06:46:06;;;;;;;0.00;0.00;;;;;;;;;;5115768;27;20368;-85
2023/05/29 06:48:35;;;;;;;0.00;0.00;;;;;;;;;;5114665;28;20032;-83
2023/05/29 06:51:08;;;;;;;0.00;0.00;;;;;;;;;;5113710;28;20494;-84
2023/05/29 06:53:40;;;;;;;0.00;0.00;;;;;;;;;;5114202;28;20035;-85
2023/05/29 06:56:06;;;;;;;0.00;0.00;;;;;;;;;;5112536;28;20043;-84
2023/05/29 06:58:31;;;;;;;0.00;0.00;;;;;;;;;;5096695;28;20036;-86
2023/05/29 07:00:58;;;;;;;0.00;0.00;;;;;;;;;;5116515;27;20037;-85
2023/05/29 07:03:27;;;;;;;0.00;0.00;;;;;;;;;;5111231;28;20039;-84
2023/05/29 07:05:53;;;;;;;0.00;0.00;;;;;;;;;;5113772;28;20669;-85
2023/05/29 07:08:19;;;;;;;0.00;0.00;;;;;;;;;;5113733;28;20038;-85
2023/05/29 07:10:45;;;;;;;0.20;0.20;;;;;;;;;;5111760;28;20039;-86
2023/05/29 07:13:14;;;;;;;1.75;1.65;;;;;;;;;;5118475;27;20051;-85
2023/05/29 07:15:40;;;;;;;;;;;;;;;;;;5112281;28;20066;-87
2023/05/29 07:18:05;;;;;;;0.00;0.00;;;;;;;;;;5113708;28;20360;-86
2023/05/29 07:20:30;;;;;;;0.10;0.10;;;;;;;;;;5115514;27;20061;-85
2023/05/29 07:22:56;;;;;;;0.00;0.00;;;;;;;;;;5112845;27;20027;-84
2023/05/29 07:25:21;;;;;;;0.00;0.00;;;;;;;;;;5115064;27;20024;-87
2023/05/29 07:27:47;;;;;;;0.00;0.00;;;;;;;;;;5113157;27;20027;-82
2023/05/29 07:30:12;;;;;;;0.20;0.20;;;;;;;;;;5111968;27;20087;-83
2023/05/29 07:32:38;;;;;;;0.00;0.00;;;;;;;;;;5111396;27;20061;-82
2023/05/29 07:35:04;;;;;;;0.10;0.10;;;;;;;;;;5116181;27;20039;-84
2023/05/29 07:37:30;;;;;;;0.00;0.00;;;;;;;;;;5113907;28;20119;-83
2023/05/29 07:39:55;;;;;;;0.00;0.00;;;;;;;;;;5113874;28;20062;-84
2023/05/29 07:42:21;;;;;;;0.17;0.17;;;;;;;;;;5115337;27;20079;-83
2023/05/29 07:44:47;;;;;;;0.00;0.00;;;;;;;;;;5112582;28;20033;-83
2023/05/29 07:47:13;;;;;;;0.00;0.00;;;;;;;;;;5094852;28;20071;-84
2023/05/29 07:49:38;;;;;;;0.00;0.00;;;;;;;;;;5092735;28;20077;-86
2023/05/29 07:52:04;;;;;;;0.00;0.00;;;;;;;;;;5112035;28;20028;-86
2023/05/29 07:54:32;;;;;;;0.20;0.20;;;;;;;;;;5113087;28;20114;-84
2023/05/29 07:57:09;;;;;;;0.00;0.00;;;;;;;;;;5114308;28;20031;-86
2023/05/29 07:59:35;;;;;;;0.00;0.00;;;;;;;;;;5115215;27;20040;-90
2023/05/29 08:02:03;;;;;;;0.00;0.00;;;;;;;;;;5114261;27;20106;-87
2023/05/29 08:04:28;;;;;;;0.05;0.05;;;;;;;;;;5113240;28;20027;-86
2023/05/29 08:06:54;;;;;;;0.20;0.20;;;;;;;;;;5113220;28;20035;-86
2023/05/29 08:09:19;;;;;;;0.00;0.00;;;;;;;;;;5111228;28;20073;-86
2023/05/29 08:11:46;;;;;;;0.00;0.00;;;;;;;;;;5114483;28;20118;-85
2023/05/29 08:14:12;;;;;;;0.43;0.43;;;;;;;;;;5112606;28;20489;-84
2023/05/29 08:16:37;;;;;;;0.03;0.03;;;;;;;;;;5086810;28;20031;-81
2023/05/29 08:19:03;;;;;;;0.00;0.00;;;;;;;;;;5108058;28;20109;-86
2023/05/29 08:21:31;;;;;;;0.15;0.15;;;;;;;;;;5114657;28;20028;-84
2023/05/29 08:23:57;;;;;;;0.38;0.38;;;;;;;;;;5096202;28;20086;-85
2023/05/29 08:26:22;;;;;;;0.10;0.10;;;;;;;;;;5096354;28;21731;-85
2023/05/29 08:28:48;;;;;;;0.00;0.00;;;;;;;;;;5113393;27;20129;-84
2023/05/29 08:31:13;;;;;;;0.10;0.10;;;;;;;;;;5094737;28;20475;-85
2023/05/29 08:33:39;;;;;;;0.00;0.00;;;;;;;;;;5113729;28;20488;-85
2023/05/29 08:36:05;;;;;;;0.20;0.20;;;;;;;;;;5112357;28;20483;-84
2023/05/29 08:38:30;;;;;;;0.05;0.05;;;;;;;;;;5109703;27;20165;-86
2023/05/29 08:41:00;;;;;;;0.00;0.00;;;;;;;;;;5094374;28;20034;-85
2023/05/29 08:43:31;;;;;;;0.03;0.03;;;;;;;;;;5110394;27;20391;-89
2023/05/29 08:46:00;;;;;;;0.00;0.00;;;;;;;;;;5088406;28;20031;-88
2023/05/29 08:48:28;;;;;;;0.00;0.00;;;;;;;;;;5094140;28;20035;-87
2023/05/29 08:50:55;;;;;;;0.10;0.10;;;;;;;;;;5111694;28;20031;-87
2023/05/29 08:53:22;;;;;;;0.00;0.00;;;;;;;;;;5113861;27;20038;-87
2023/05/29 08:55:51;;;;;;;0.00;0.00;;;;;;;;;;5112907;28;20050;-87
2023/05/29 08:58:17;;;;;;;0.05;0.05;;;;;;;;;;5113631;27;20062;-86
2023/05/29 09:01:03;;;;;;;0.10;0.10;;;;;;;;;;5112471;28;20078;-88
2023/05/29 09:03:31;;;;;;;1.67;1.55;;;;;;;;;;5092908;28;20035;-85
2023/05/29 09:06:03;;;;;;;0.00;0.00;;;;;;;;;;5093644;28;20099;-88
2023/05/29 09:09:16;;;;;;;;;;;;;;;;;;;;;
2023/05/29 09:12:44;;;;;;;0.00;0.00;;;;;;;;;;5115005;28;20039;-86
2023/05/29 09:15:35;;;;;;;0.40;0.40;;;;;;;;;;5087228;28;20044;-89
2023/05/29 09:25:01;;;;;;;0.25;0.25;;;;;;;;;;5040620;28;20049;-89
2023/05/29 09:27:50;;;;;;;0.10;0.10;;;;;;;;;;5025216;28;20037;-88
2023/05/29 09:31:12;;;;;;;;;;;;;;;;;;;;;
2023/05/29 09:37:28;;;;;;;0.20;0.20;;;;;;;;;;4987642;28;20038;-86
2023/05/29 09:40:10;;;;;;;0.08;0.08;;;;;;;;;;5115395;28;20631;-88
2023/05/29 09:42:58;;;;;;;0.05;0.05;;;;;;;;;;5114463;28;20040;-87
2023/05/29 09:49:12;;;;;;;0.10;0.10;;;;;;;;;;5098516;28;20035;-88
2023/05/29 09:51:38;;;;;;;0.00;0.00;;;;;;;;;;5088388;28;20058;-87
2023/05/29 09:54:16;;;;;;;0.20;0.20;;;;;;;;;;5111919;28;20035;-90
2023/05/29 09:56:43;;;;;;;0.00;0.00;;;;;;;;;;5096465;28;20066;-88
2023/05/29 10:03:04;;;;;;;0.00;0.00;;;;;;;;;;5001234;28;20125;-91
2023/05/29 10:06:54;;;;;;;0.00;0.00;;;;;;;;;;4958210;28;20053;-90
2023/05/29 10:09:23;;;;;;;0.85;0.20;;;;;;;;;;4998030;28;20069;-90
2023/05/29 10:11:50;;;;;;;0.00;0.00;;;;;;;;;;4979280;28;20046;-86
2023/05/29 10:14:19;;;;;;;0.05;0.05;;;;;;;;;;5037725;28;20060;-87
2023/05/29 10:16:46;;;;;;;0.05;0.05;;;;;;;;;;5056019;28;20075;-86
2023/05/29 10:19:21;;;;;;;0.25;0.25;;;;;;;;;;5055846;28;20974;-89
2023/05/29 10:22:01;;;;;;;0.00;0.00;;;;;;;;;;5052152;28;20396;-88
2023/05/29 10:24:28;;;;;;;0.10;0.10;;;;;;;;;;5056757;28;20123;-89
2023/05/29 10:26:55;;;;;;;0.50;0.50;;;;;;;;;;5056120;28;20076;-89
2023/05/29 10:29:27;;;;;;;0.10;0.10;;;;;;;;;;5071297;28;20036;-87
2023/05/29 10:32:08;;;;;;;0.05;0.05;;;;;;;;;;5054704;28;20108;-89
2023/05/29 10:34:43;;;;;;;0.00;0.00;;;;;;;;;;5055727;28;20032;-90
2023/05/29 10:37:35;;;;;;;0.05;0.05;;;;;;;;;;5087630;28;20052;-89
2023/05/29 10:40:14;;;;;;;0.10;0.10;;;;;;;;;;5086282;28;20040;-87
2023/05/29 10:42:52;;;;;;;0.30;0.20;;;;;;;;;;5098000;28;20032;-89
2023/05/29 10:45:34;;;;;;;0.00;0.00;;;;;;;;;;5095785;28;20031;-85
2023/05/29 10:48:06;;;;;;;0.00;0.00;;;;;;;;;;5080287;28;20380;-89
2023/05/29 10:50:42;;;;;;;0.00;0.00;;;;;;;;;;5096018;28;20039;-88
2023/05/29 10:53:14;;;;;;;0.45;0.45;;;;;;;;;;5079841;28;20043;-86
2023/05/29 10:55:41;;;;;;;0.10;0.10;;;;;;;;;;5097738;28;20382;-88
2023/05/29 10:58:13;;;;;;;0.00;0.00;;;;;;;;;;5099369;28;20392;-87
2023/05/29 11:00:42;;;;;;;0.00;0.00;;;;;;;;;;5097352;28;20081;-84
2023/05/29 11:03:08;;;;;;;0.57;0.30;;;;;;;;;;5095506;28;20475;-88
2023/05/29 11:05:34;;;;;;;0.00;0.00;;;;;;;;;;5095940;28;20055;-87
2023/05/29 11:08:03;;;;;;;0.10;0.10;;;;;;;;;;5093946;28;20476;-85
2023/05/29 11:10:55;;;;;;;0.30;0.30;;;;;;;;;;5095119;28;20130;-85
2023/05/29 11:13:31;;;;;;;0.45;0.45;;;;;;;;;;5093699;28;20479;-87
2023/05/29 11:16:15;;;;;;;0.00;0.00;;;;;;;;;;5116317;27;20378;-82
2023/05/29 11:18:46;;;;;;;0.00;0.00;;;;;;;;;;5112695;28;20038;-87
2023/05/29 11:21:33;;;;;;;0.10;0.10;;;;;;;;;;5114813;28;20429;-85
2023/05/29 11:24:02;;;;;;;0.17;0.10;;;;;;;;;;5110307;28;20028;-82
2023/05/29 11:26:29;;;;;;;0.08;0.08;;;;;;;;;;5113388;27;20062;-85
2023/05/29 11:29:04;;;;;;;0.43;0.43;;;;;;;;;;5114374;28;20027;-86
2023/05/29 11:31:32;;;;;;;0.05;0.05;;;;;;;;;;5114273;28;20027;-84
2023/05/29 11:34:00;;;;;;;0.10;0.10;;;;;;;;;;5114412;28;20535;-86
2023/05/29 11:36:27;;;;;;;0.20;0.20;;;;;;;;;;5114704;28;20122;-87
2023/05/29 11:38:53;;;;;;;0.03;0.03;;;;;;;;;;5115249;27;20530;-89
2023/05/29 11:41:18;;;;;;;0.00;0.00;;;;;;;;;;5114624;28;20051;-86
2023/05/29 11:43:45;;;;;;;0.10;0.10;;;;;;;;;;5114344;27;20386;-89
2023/05/29 11:46:18;;;;;;;0.10;0.10;;;;;;;;;;5114388;28;20092;-85
2023/05/29 11:48:47;;;;;;;0.10;0.10;;;;;;;;;;5119544;27;20098;-86
2023/05/29 11:51:13;;;;;;;0.08;0.08;;;;;;;;;;5113725;28;20063;-84
2023/05/29 11:53:43;;;;;;;0.03;0.03;;;;;;;;;;5114578;27;20038;-83
2023/05/29 11:56:15;;;;;;;0.20;0.20;;;;;;;;;;5114302;28;20032;-85
2023/05/29 11:58:42;;;;;;;0.00;0.00;;;;;;;;;;5114824;27;20383;-86
2023/05/29 12:01:08;;;;;;;0.00;0.00;;;;;;;;;;5114339;27;20415;-87
2023/05/29 12:03:39;;;;;;;0.00;0.00;;;;;;;;;;5113617;28;20061;-85
2023/05/29 12:06:06;;;;;;;0.28;0.10;;;;;;;;;;5115768;27;20032;-85
2023/05/29 12:08:32;;;;;;;0.10;0.10;;;;;;;;;;5113703;28;20023;-85
2023/05/29 12:10:57;;;;;;;0.00;0.00;;;;;;;;;;5113418;28;20041;-86
2023/05/29 12:13:23;;;;;;;0.30;0.25;;;;;;;;;;5106752;28;20051;-84
2023/05/29 12:15:59;;;;;;;0.08;0.08;;;;;;;;;;5105833;28;20760;-84
2023/05/29 12:18:26;;;;;;;0.10;0.10;;;;;;;;;;5107460;28;20082;-85
2023/05/29 12:20:57;;;;;;;0.20;0.15;;;;;;;;;;5107880;27;20080;-85
2023/05/29 12:23:24;;;;;;;0.50;0.50;;;;;;;;;;5104590;27;20029;-83
2023/05/29 12:25:51;;;;;;;0.10;0.10;;;;;;;;;;5108248;27;20066;-84
2023/05/29 12:28:18;;;;;;;0.10;0.10;;;;;;;;;;5092028;28;20071;-83
2023/05/29 12:30:49;;;;;;;0.00;0.00;;;;;;;;;;5107535;28;20467;-84
2023/05/29 12:33:32;;;;;;;0.00;0.00;;;;;;;;;;5108772;27;20033;-84
2023/05/29 12:36:06;;;;;;;0.00;0.00;;;;;;;;;;5103974;28;20088;-82
2023/05/29 12:38:32;;;;;;;0.10;0.10;;;;;;;;;;5104552;28;20068;-83
2023/05/29 12:40:57;;;;;;;0.30;0.30;;;;;;;;;;5107703;28;20066;-87
2023/05/29 12:43:22;;;;;;;0.22;0.22;;;;;;;;;;5094944;28;20467;-83
2023/05/29 12:45:57;;;;;;;0.00;0.00;;;;;;;;;;5103548;28;20027;-84
2023/05/29 12:48:27;;;;;;;0.20;0.20;;;;;;;;;;5100809;28;20028;-83
2023/05/29 12:50:52;;;;;;;0.15;0.08;;;;;;;;;;5105673;28;20111;-83
2023/05/29 12:53:17;;;;;;;0.30;0.30;;;;;;;;;;5105898;28;20066;-82
2023/05/29 12:55:44;;;;;;;0.10;0.10;;;;;;;;;;5104725;28;20151;-84
2023/05/29 12:58:14;;;;;;;0.13;0.08;;;;;;;;;;5097777;27;20042;-86
2023/05/29 13:00:44;;;;;;;3.83;0.40;;;;;;;;;;5107594;28;20084;-85
2023/05/29 13:03:12;;;;;;;0.00;0.00;;;;;;;;;;5101334;27;20032;-84
2023/05/29 13:05:38;;;;;;;0.00;0.00;;;;;;;;;;5108885;28;20059;-86
2023/05/29 13:08:07;;;;;;;0.15;0.15;;;;;;;;;;5100301;28;20067;-89
2023/05/29 13:10:34;;;;;;;0.90;0.50;;;;;;;;;;5087574;28;20036;-86
2023/05/29 13:12:59;;;;;;;0.10;0.10;;;;;;;;;;5104422;28;20039;-89
2023/05/29 13:15:28;;;;;;;0.08;0.08;;;;;;;;;;5100837;28;20035;-86
2023/05/29 13:17:54;;;;;;;0.10;0.10;;;;;;;;;;5106610;28;20503;-86
2023/05/29 13:20:20;;;;;;;0.00;0.00;;;;;;;;;;5092279;28;20074;-87
2023/05/29 13:22:47;;;;;;;0.43;0.28;;;;;;;;;;5109215;27;20044;-87
2023/05/29 13:25:14;;;;;;;0.00;0.00;;;;;;;;;;5100752;28;20038;-86
2023/05/29 13:27:41;;;;;;;0.20;0.20;;;;;;;;;;5098563;28;20032;-84
2023/05/29 13:30:08;;;;;;;0.00;0.00;;;;;;;;;;5099026;28;20032;-82
2023/05/29 13:32:34;;;;;;;0.93;0.52;;;;;;;;;;5105131;28;20036;-86
2023/05/29 13:35:01;;;;;;;1.08;0.45;;;;;;;;;;5103502;28;20089;-84
2023/05/29 13:37:27;;;;;;;0.30;0.30;;;;;;;;;;5102781;28;20106;-82
2023/05/29 13:39:53;;;;;;;0.03;0.03;;;;;;;;;;5105310;28;20134;-83
2023/05/29 13:42:18;;;;;;;0.10;0.10;;;;;;;;;;5100298;28;20506;-84
2023/05/29 13:44:44;;;;;;;0.15;0.05;;;;;;;;;;5102592;28;20036;-83
2023/05/29 13:47:16;;;;;;;0.10;0.10;;;;;;;;;;5107857;28;20035;-82
2023/05/29 13:49:44;;;;;;;0.00;0.00;;;;;;;;;;5102338;28;20545;-84
2023/05/29 13:52:41;;;;;;;;;;;;;;;;;;;;;
2023/05/29 13:55:28;;;;;;;0.10;0.10;;;;;;;;;;5107389;28;20036;-89
2023/05/29 13:58:17;;;;;;;0.00;0.00;;;;;;;;;;5092362;28;20047;-87
2023/05/29 14:01:24;;;;;;;0.00;0.00;;;;;;;;;;5085198;28;20036;-86
2023/05/29 14:04:03;;;;;;;0.60;0.10;;;;;;;;;;5104878;28;20398;-87
2023/05/29 14:13:40;;;;;;;0.05;0.05;;;;;;;;;;5068184;28;19916;-88
2023/05/29 14:19:50;;;;;;;0.10;0.10;;;;;;;;;;5109609;28;20035;-88
2023/05/29 14:22:15;;;;;;;0.00;0.00;;;;;;;;;;5091704;28;20035;-88
2023/05/29 14:24:41;;;;;;;0.00;0.00;;;;;;;;;;5109582;28;20459;-88
2023/05/29 14:27:07;;;;;;;0.00;0.00;;;;;;;;;;5090978;28;20120;-87
2023/05/29 14:29:32;;;;;;;0.80;0.43;;;;;;;;;;5111705;28;20023;-85
2023/05/29 14:31:57;;;;;;;0.00;0.00;;;;;;;;;;5111639;28;20027;-87
2023/05/29 14:34:23;;;;;;;0.00;0.00;;;;;;;;;;5111621;28;20040;-86
2023/05/29 14:36:48;;;;;;;0.10;0.10;;;;;;;;;;5110709;28;20032;-87
2023/05/29 14:39:14;;;;;;;0.30;0.30;;;;;;;;;;5110399;28;20081;-86
2023/05/29 14:41:39;;;;;;;0.00;0.00;;;;;;;;;;5113271;28;20035;-88
2023/05/29 14:44:05;;;;;;;0.00;0.00;;;;;;;;;;5115177;28;20028;-83
2023/05/29 14:46:33;;;;;;;0.00;0.00;;;;;;;;;;5113597;28;20028;-84
2023/05/29 14:48:59;;;;;;;0.43;0.20;;;;;;;;;;5115414;28;20032;-86
2023/05/29 14:51:25;;;;;;;0.00;0.00;;;;;;;;;;5112187;28;20470;-85
2023/05/29 14:53:50;;;;;;;0.30;0.30;;;;;;;;;;5115394;28;20043;-81
2023/05/29 14:56:17;;;;;;;0.10;0.10;;;;;;;;;;5116530;27;20089;-84
2023/05/29 14:58:43;;;;;;;0.05;0.05;;;;;;;;;;5115961;27;20035;-83
2023/05/29 15:01:09;;;;;;;0.00;0.00;;;;;;;;;;5117891;27;20034;-85
2023/05/29 15:03:35;;;;;;;0.00;0.00;;;;;;;;;;5091558;28;20027;-87
2023/05/29 15:06:01;;;;;;;0.00;0.00;;;;;;;;;;5115543;27;20031;-86
2023/05/29 15:08:28;;;;;;;0.00;0.00;;;;;;;;;;5117182;27;20050;-84
2023/05/29 15:10:53;;;;;;;0.00;0.00;;;;;;;;;;5095744;28;20037;-86
2023/05/29 15:13:19;;;;;;;0.00;0.00;;;;;;;;;;5112699;28;20176;-88
2023/05/29 15:15:45;;;;;;;0.00;0.00;;;;;;;;;;5102080;28;20107;-86
2023/05/29 15:18:10;;;;;;;0.00;0.00;;;;;;;;;;5093188;28;20131;-84
2023/05/29 15:20:36;;;;;;;0.00;0.00;;;;;;;;;;5103690;28;20050;-90
2023/05/29 15:23:01;;;;;;;0.40;0.20;;;;;;;;;;5105512;28;20042;-86
2023/05/29 15:25:26;;;;;;;0.10;0.10;;;;;;;;;;5105073;27;20069;-87
2023/05/29 15:27:52;;;;;;;0.00;0.00;;;;;;;;;;5110507;28;20097;-84
2023/05/29 15:30:18;;;;;;;0.00;0.00;;;;;;;;;;5105117;28;20490;-86
2023/05/29 15:32:45;;;;;;;0.00;0.00;;;;;;;;;;5102055;28;20050;-87
2023/05/29 15:35:12;;;;;;;0.10;0.10;;;;;;;;;;5105121;28;20086;-86
2023/05/29 15:37:38;;;;;;;0.03;0.03;;;;;;;;;;5100169;28;20106;-86
2023/05/29 15:40:04;;;;;;;0.00;0.00;;;;;;;;;;5094663;28;20455;-87
2023/05/29 15:42:33;;;;;;;0.00;0.00;;;;;;;;;;5084636;28;20059;-85
2023/05/29 15:44:58;;;;;;;0.03;0.03;;;;;;;;;;5096098;27;20117;-84
2023/05/29 15:47:24;;;;;;;0.00;0.00;;;;;;;;;;5094977;28;20032;-84
2023/05/29 15:49:50;;;;;;;0.10;0.10;;;;;;;;;;5106599;28;20020;-86
2023/05/29 15:52:16;;;;;;;0.20;0.20;;;;;;;;;;5103726;28;20515;-85
2023/05/29 15:54:41;;;;;;;0.00;0.00;;;;;;;;;;5102269;28;20099;-84
2023/05/29 15:57:06;;;;;;;0.00;0.00;;;;;;;;;;5101170;28;20046;-83
2023/05/29 15:59:33;;;;;;;0.63;0.60;;;;;;;;;;5111766;27;20084;-86
2023/05/29 16:01:58;;;;;;;0.00;0.00;;;;;;;;;;5106994;28;20032;-85
2023/05/29 16:04:24;;;;;;;0.00;0.00;;;;;;;;;;5095365;28;20041;-86
2023/05/29 16:06:49;;;;;;;0.10;0.10;;;;;;;;;;5103790;28;20201;-83
2023/05/29 16:09:15;;;;;;;0.00;0.00;;;;;;;;;;5107659;28;20057;-85
2023/05/29 16:11:41;;;;;;;0.13;0.13;;;;;;;;;;5110436;28;20666;-84
2023/05/29 16:14:07;;;;;;;0.00;0.00;;;;;;;;;;5093637;28;20054;-85